createdAt,value
2022-09-25T00:01:05.024Z,2.30
2022-09-25T00:03:06.940Z,2.50
2022-09-25T00:05:09.180Z,2.28
2022-09-25T00:07:11.057Z,2.38
2022-09-25T00:09:14.946Z,2.15
2022-09-25T00:11:27.545Z,2.08
2022-09-25T00:13:29.458Z,2.40
2022-09-25T00:15:31.571Z,2.35
2022-09-25T00:17:33.988Z,2.45
2022-09-25T00:19:50.704Z,2.35
2022-09-25T00:21:53.921Z,2.33
2022-09-25T00:23:55.768Z,1.92
2022-09-25T00:25:59.765Z,2.00
2022-09-25T00:28:01.846Z,2.00
2022-09-25T00:30:04.294Z,2.20
2022-09-25T00:32:09.672Z,2.38
2022-09-25T00:34:11.686Z,2.22
2022-09-25T00:36:13.554Z,2.40
2022-09-25T00:38:15.453Z,2.17
2022-09-25T00:40:17.437Z,2.38
2022-09-25T00:42:21.613Z,2.00
2022-09-25T00:44:42.219Z,2.08
2022-09-25T00:46:44.867Z,2.25
2022-09-25T00:48:59.679Z,2.30
2022-09-25T00:51:02.120Z,2.25
2022-09-25T00:53:13.456Z,2.35
2022-09-25T00:55:16.151Z,2.28
2022-09-25T00:57:21.158Z,2.00
2022-09-25T00:59:27.775Z,2.10
2022-09-25T01:01:29.862Z,2.10
2022-09-25T01:03:31.773Z,2.10
2022-09-25T01:05:37.302Z,2.13
2022-09-25T01:07:41.960Z,2.30
2022-09-25T01:09:45.518Z,2.30
2022-09-25T01:11:47.848Z,2.47
2022-09-25T01:13:51.123Z,2.65
2022-09-25T01:16:04.247Z,1.80
2022-09-25T01:18:23.789Z,2.38
2022-09-25T01:20:53.593Z,2.13
2022-09-25T01:22:55.409Z,2.20
2022-09-25T01:25:00.311Z,2.20
2022-09-25T01:27:21.059Z,2.28
2022-09-25T01:29:45.588Z,2.20
2022-09-25T01:31:55.985Z,2.40
2022-09-25T01:34:32.766Z,2.00
2022-09-25T01:36:51.508Z,1.90
2022-09-25T01:39:16.326Z,2.20
2022-09-25T01:41:30.382Z,2.13
2022-09-25T01:43:39.712Z,2.08
2022-09-25T01:45:51.162Z,2.30
2022-09-25T01:47:53.214Z,2.22
2022-09-25T01:50:01.749Z,2.15
2022-09-25T01:52:08.225Z,2.17
2022-09-25T01:54:15.714Z,2.45
2022-09-25T01:56:34.301Z,2.63
2022-09-25T01:58:48.609Z,2.13
2022-09-25T02:00:58.166Z,2.28
2022-09-25T02:03:39.909Z,2.60
2022-09-25T02:05:46.506Z,2.25
2022-09-25T02:07:56.648Z,2.00
2022-09-25T02:10:07.617Z,2.33
2022-09-25T02:12:21.963Z,1.83
2022-09-25T02:14:29.272Z,2.00
2022-09-25T02:16:43.811Z,2.03
2022-09-25T02:19:05.610Z,2.13
2022-09-25T02:21:21.952Z,2.35
2022-09-25T02:23:40.165Z,2.30
2022-09-25T02:25:49.062Z,2.50
2022-09-25T02:27:50.957Z,1.90
2022-09-25T02:29:53.151Z,2.40
2022-09-25T02:32:17.335Z,1.95
2022-09-25T02:34:19.802Z,2.60
2022-09-25T02:36:24.146Z,2.13
2022-09-25T02:38:26.067Z,2.00
2022-09-25T02:40:39.250Z,2.13
2022-09-25T02:42:48.375Z,1.70
2022-09-25T02:45:25.717Z,2.40
2022-09-25T02:47:52.171Z,2.30
2022-09-25T02:50:19.875Z,2.45
2022-09-25T02:53:09.465Z,1.88
2022-09-25T02:55:32.742Z,2.50
2022-09-25T02:57:52.722Z,2.50
2022-09-25T02:59:59.791Z,2.28
2022-09-25T03:02:02.625Z,1.70
2022-09-25T03:04:06.143Z,2.20
2022-09-25T03:06:10.177Z,2.33
2022-09-25T03:08:30.738Z,2.35
2022-09-25T03:10:35.555Z,2.20
2022-09-25T03:12:37.368Z,2.45
2022-09-25T03:14:40.136Z,2.10
2022-09-25T03:16:57.739Z,2.28
2022-09-25T03:18:59.735Z,2.10
2022-09-25T03:21:02.107Z,1.80
2022-09-25T03:23:03.994Z,2.30
2022-09-25T03:25:06.161Z,2.33
2022-09-25T03:27:08.164Z,2.05
2022-09-25T03:29:12.806Z,2.20
2022-09-25T03:31:14.746Z,2.60
2022-09-25T03:33:17.616Z,2.50
2022-09-25T03:35:19.505Z,2.15
2022-09-25T03:37:21.382Z,2.60
2022-09-25T03:39:23.344Z,2.20
2022-09-25T03:41:28.121Z,2.10
2022-09-25T03:43:33.626Z,2.22
2022-09-25T03:45:35.452Z,2.28
2022-09-25T03:47:37.589Z,2.70
2022-09-25T03:49:39.462Z,2.20
2022-09-25T03:51:42.410Z,2.20
2022-09-25T03:53:44.784Z,2.10
2022-09-25T03:55:48.718Z,2.15
2022-09-25T03:57:50.591Z,2.30
2022-09-25T03:59:52.890Z,2.22
2022-09-25T04:01:54.757Z,2.08
2022-09-25T04:03:56.625Z,2.28
2022-09-25T04:06:00.992Z,2.42
2022-09-25T04:08:03.222Z,2.65
2022-09-25T04:10:05.615Z,2.50
2022-09-25T04:12:08.878Z,2.28
2022-09-25T04:14:12.547Z,2.20
2022-09-25T04:16:16.192Z,2.53
2022-09-25T04:18:18.815Z,2.45
2022-09-25T04:20:21.185Z,2.67
2022-09-25T04:22:23.561Z,2.03
2022-09-25T04:24:44.188Z,2.30
2022-09-25T04:26:46.789Z,2.40
2022-09-25T04:28:48.995Z,2.20
2022-09-25T04:30:51.411Z,2.40
2022-09-25T04:33:12.337Z,2.28
2022-09-25T04:35:14.223Z,2.25
2022-09-25T04:37:16.104Z,2.55
2022-09-25T04:39:20.174Z,2.35
2022-09-25T04:41:22.227Z,2.63
2022-09-25T04:43:24.018Z,2.08
2022-09-25T04:45:26.764Z,2.40
2022-09-25T04:47:30.190Z,2.15
2022-09-25T04:49:32.006Z,2.35
2022-09-25T04:51:33.815Z,2.10
2022-09-25T04:53:37.156Z,2.30
2022-09-25T04:55:39.128Z,2.58
2022-09-25T04:57:57.662Z,2.33
2022-09-25T05:00:02.046Z,2.70
2022-09-25T05:02:04.181Z,2.28
2022-09-25T05:04:08.678Z,2.10
2022-09-25T05:06:10.962Z,2.50
2022-09-25T05:08:12.806Z,2.30
2022-09-25T05:10:14.746Z,2.05
2022-09-25T05:12:16.585Z,2.15
2022-09-25T05:14:18.651Z,2.38
2022-09-25T05:16:20.790Z,2.60
2022-09-25T05:18:24.288Z,2.42
2022-09-25T05:20:26.161Z,2.65
2022-09-25T05:22:28.012Z,2.55
2022-09-25T05:24:31.168Z,2.50
2022-09-25T05:26:34.473Z,2.38
2022-09-25T05:28:36.494Z,2.50
2022-09-25T05:30:39.050Z,2.40
2022-09-25T05:32:49.483Z,2.03
2022-09-25T05:34:51.437Z,2.55
2022-09-25T05:36:53.357Z,2.22
2022-09-25T05:38:56.471Z,2.63
2022-09-25T05:41:04.429Z,2.30
2022-09-25T05:43:06.701Z,2.78
2022-09-25T05:45:09.288Z,2.40
2022-09-25T05:47:11.267Z,2.60
2022-09-25T05:49:14.376Z,2.65
2022-09-25T05:51:16.163Z,3.05
2022-09-25T05:53:18.224Z,3.05
2022-09-25T05:55:20.037Z,2.63
2022-09-25T05:57:22.511Z,2.88
2022-09-25T05:59:24.362Z,2.55
2022-09-25T06:01:26.268Z,2.28
2022-09-25T06:03:29.597Z,2.90
2022-09-25T06:05:31.548Z,3.30
2022-09-25T06:07:33.395Z,2.85
2022-09-25T06:09:35.695Z,2.80
2022-09-25T06:11:37.567Z,3.17
2022-09-25T06:13:39.474Z,2.85
2022-09-25T06:15:42.136Z,2.33
2022-09-25T06:17:44.020Z,2.45
2022-09-25T06:19:46.105Z,3.08
2022-09-25T06:21:47.942Z,2.60
2022-09-25T06:23:50.208Z,3.55
2022-09-25T06:25:52.044Z,3.22
2022-09-25T06:27:55.201Z,2.95
2022-09-25T06:29:57.045Z,3.10
2022-09-25T06:31:58.927Z,3.42
2022-09-25T06:34:01.576Z,3.38
2022-09-25T06:36:05.684Z,2.97
2022-09-25T06:38:07.572Z,2.88
2022-09-25T06:40:09.787Z,2.83
2022-09-25T06:42:11.723Z,4.25
2022-09-25T06:44:13.768Z,3.10
2022-09-25T06:46:15.874Z,3.80
2022-09-25T06:48:18.308Z,3.00
2022-09-25T06:50:20.112Z,3.08
2022-09-25T06:52:21.954Z,3.15
2022-09-25T06:54:24.142Z,2.60
2022-09-25T06:56:26.338Z,2.63
2022-09-25T06:58:30.262Z,3.10
2022-09-25T07:00:33.130Z,4.28
2022-09-25T07:02:53.979Z,4.63
2022-09-25T07:04:55.872Z,3.58
2022-09-25T07:06:59.053Z,3.53
2022-09-25T07:09:01.190Z,3.30
2022-09-25T07:11:03.328Z,3.15
2022-09-25T07:13:05.557Z,3.72
2022-09-25T07:15:08.051Z,3.45
2022-09-25T07:17:10.109Z,3.30
2022-09-25T07:19:11.929Z,3.28
2022-09-25T07:21:14.782Z,3.28
2022-09-25T07:23:18.239Z,3.08
2022-09-25T07:25:20.100Z,3.15
2022-09-25T07:27:22.358Z,3.33
2022-09-25T07:29:24.309Z,3.20
2022-09-25T07:31:29.541Z,3.13
2022-09-25T07:33:32.592Z,3.65
2022-09-25T07:35:35.410Z,3.83
2022-09-25T07:37:37.912Z,4.95
2022-09-25T07:39:39.763Z,4.03
2022-09-25T07:41:41.579Z,3.67
2022-09-25T07:43:43.680Z,3.55
2022-09-25T07:45:53.663Z,3.25
2022-09-25T07:47:57.398Z,3.60
2022-09-25T07:49:59.296Z,3.47
2022-09-25T07:52:06.062Z,3.80
2022-09-25T07:54:08.382Z,3.45
2022-09-25T07:56:11.776Z,3.78
2022-09-25T07:58:14.840Z,3.28
2022-09-25T08:00:17.586Z,3.80
2022-09-25T08:02:19.655Z,3.50
2022-09-25T08:04:21.628Z,3.35
2022-09-25T08:06:23.492Z,3.45
2022-09-25T08:08:26.561Z,3.85
2022-09-25T08:10:28.374Z,3.33
2022-09-25T08:12:30.735Z,4.53
2022-09-25T08:14:33.564Z,3.35
2022-09-25T08:16:35.438Z,4.05
2022-09-25T08:18:37.730Z,3.50
2022-09-25T08:20:40.203Z,4.28
2022-09-25T08:22:42.255Z,3.65
2022-09-25T08:24:44.145Z,4.03
2022-09-25T08:26:47.180Z,4.60
2022-09-25T08:28:49.380Z,4.55
2022-09-25T08:30:51.235Z,4.55
2022-09-25T08:32:53.195Z,4.35
2022-09-25T08:34:55.239Z,3.63
2022-09-25T08:36:58.008Z,3.70
2022-09-25T08:39:00.972Z,2.75
2022-09-25T08:41:03.839Z,4.05
2022-09-25T08:43:06.156Z,3.33
2022-09-25T08:45:37.224Z,4.63
2022-09-25T08:47:58.843Z,4.80
2022-09-25T08:50:14.578Z,4.50
2022-09-25T08:52:21.259Z,3.75
2022-09-25T08:54:25.261Z,3.75
2022-09-25T08:56:32.718Z,4.50
2022-09-25T08:58:43.259Z,4.32
2022-09-25T09:00:46.156Z,4.07
2022-09-25T09:02:57.433Z,3.50
2022-09-25T09:05:01.837Z,3.50
2022-09-25T09:07:26.506Z,3.15
2022-09-25T09:09:46.119Z,4.03
2022-09-25T09:11:50.740Z,3.40
2022-09-25T09:14:06.257Z,3.70
2022-09-25T09:16:19.659Z,3.25
2022-09-25T09:18:27.339Z,3.70
2022-09-25T09:20:52.320Z,3.50
2022-09-25T09:22:56.036Z,4.40
2022-09-25T09:25:15.588Z,4.75
2022-09-25T09:27:32.871Z,3.92
2022-09-25T09:30:05.704Z,4.07
2022-09-25T09:32:14.323Z,3.20
2022-09-25T09:34:53.503Z,4.07
2022-09-25T09:37:12.475Z,3.42
2022-09-25T09:39:25.087Z,4.50
2022-09-25T09:41:50.177Z,4.22
2022-09-25T09:44:04.149Z,3.90
2022-09-25T09:46:30.094Z,3.60
2022-09-25T09:48:38.355Z,4.53
2022-09-25T09:50:53.377Z,3.33
2022-09-25T09:53:10.142Z,4.10
2022-09-25T09:55:26.379Z,4.60
2022-09-25T09:57:32.962Z,4.35
2022-09-25T09:59:46.229Z,3.95
2022-09-25T10:01:59.319Z,5.00
2022-09-25T10:04:07.039Z,3.78
2022-09-25T10:06:11.474Z,3.60
2022-09-25T10:08:13.769Z,3.85
2022-09-25T10:10:18.125Z,3.85
2022-09-25T10:12:25.550Z,3.65
2022-09-25T10:14:33.214Z,3.60
2022-09-25T10:16:36.656Z,3.90
2022-09-25T10:19:05.104Z,3.67
2022-09-25T10:21:16.430Z,4.40
2022-09-25T10:23:39.369Z,4.20
2022-09-25T10:25:41.236Z,3.45
2022-09-25T10:27:49.000Z,3.30
2022-09-25T10:30:09.520Z,4.72
2022-09-25T10:32:11.938Z,4.18
2022-09-25T10:34:13.848Z,4.00
2022-09-25T10:36:29.772Z,4.10
2022-09-25T10:38:37.813Z,4.90
2022-09-25T10:40:41.135Z,4.65
2022-09-25T10:42:43.257Z,3.95
2022-09-25T10:44:45.778Z,4.50
2022-09-25T10:47:26.263Z,3.90
2022-09-25T10:49:47.154Z,4.28
2022-09-25T10:52:08.089Z,4.40
2022-09-25T10:54:11.433Z,4.28
2022-09-25T10:56:38.892Z,5.07
2022-09-25T10:58:47.322Z,4.97
2022-09-25T11:00:54.491Z,3.35
2022-09-25T11:03:00.989Z,4.82
2022-09-25T11:05:03.978Z,5.03
2022-09-25T11:07:17.352Z,4.18
2022-09-25T11:09:25.150Z,4.75
2022-09-25T11:11:27.392Z,3.77
2022-09-25T11:13:36.913Z,4.07
2022-09-25T11:15:39.330Z,4.10
2022-09-25T11:17:43.626Z,4.70
2022-09-25T11:19:45.434Z,4.20
2022-09-25T11:21:50.662Z,4.75
2022-09-25T11:24:04.378Z,4.78
2022-09-25T11:26:12.619Z,4.43
2022-09-25T11:28:42.121Z,4.80
2022-09-25T11:30:51.591Z,4.10
2022-09-25T11:33:18.170Z,4.07
2022-09-25T11:35:22.758Z,4.57
2022-09-25T11:37:32.380Z,4.20
2022-09-25T11:40:14.864Z,5.25
2022-09-25T11:42:19.030Z,5.30
2022-09-25T11:44:57.548Z,4.85
2022-09-25T11:47:28.714Z,5.03
2022-09-25T11:49:34.506Z,4.05
2022-09-25T11:51:58.237Z,4.30
2022-09-25T11:54:39.862Z,4.40
2022-09-25T11:57:11.504Z,4.70
2022-09-25T11:59:41.779Z,5.57
2022-09-25T12:01:54.056Z,4.78
2022-09-25T12:04:24.300Z,4.60
2022-09-25T12:06:35.072Z,4.43
2022-09-25T12:09:16.994Z,3.92
2022-09-25T12:11:21.731Z,3.97
2022-09-25T12:13:32.748Z,4.00
2022-09-25T12:15:42.357Z,4.20
2022-09-25T12:18:19.977Z,4.00
2022-09-25T12:20:37.674Z,3.83
2022-09-25T12:23:00.356Z,4.13
2022-09-25T12:25:31.713Z,4.18
2022-09-25T12:27:50.499Z,3.88
2022-09-25T12:30:17.366Z,4.22
2022-09-25T12:32:43.377Z,4.30
2022-09-25T12:35:10.991Z,3.88
2022-09-25T12:37:40.195Z,3.45
2022-09-25T12:39:47.293Z,3.42
2022-09-25T12:41:54.400Z,3.58
2022-09-25T12:44:27.490Z,4.18
2022-09-25T12:46:37.702Z,4.25
2022-09-25T12:48:46.145Z,4.68
2022-09-25T12:51:06.244Z,3.78
2022-09-25T12:53:29.025Z,3.55
2022-09-25T12:55:48.185Z,3.53
2022-09-25T12:58:03.007Z,4.32
2022-09-25T13:00:21.377Z,3.83
2022-09-25T13:02:46.642Z,4.00
2022-09-25T13:05:03.745Z,4.03
2022-09-25T13:07:21.458Z,4.60
2022-09-25T13:09:45.135Z,3.72
2022-09-25T13:11:58.399Z,3.35
2022-09-25T13:14:02.982Z,4.07
2022-09-25T13:16:05.406Z,3.58
2022-09-25T13:18:22.261Z,4.18
2022-09-25T13:20:27.172Z,4.47
2022-09-25T13:22:33.118Z,3.40
2022-09-25T13:25:02.627Z,3.70
2022-09-25T13:27:06.483Z,3.90
2022-09-25T13:29:22.037Z,3.85
2022-09-25T13:31:29.598Z,3.78
2022-09-25T13:33:42.743Z,3.67
2022-09-25T13:35:46.596Z,3.08
2022-09-25T13:37:51.772Z,3.50
2022-09-25T13:40:12.434Z,3.70
2022-09-25T13:42:45.262Z,3.75
2022-09-25T13:45:30.394Z,3.92
2022-09-25T13:47:33.949Z,3.53
2022-09-25T13:49:36.232Z,3.42
2022-09-25T13:51:38.145Z,3.42
2022-09-25T13:54:11.645Z,3.72
2022-09-25T13:56:18.637Z,3.38
2022-09-25T13:58:28.960Z,3.40
2022-09-25T14:00:36.853Z,3.38
2022-09-25T14:02:46.328Z,3.78
2022-09-25T14:04:48.806Z,3.22
2022-09-25T14:06:57.511Z,3.75
2022-09-25T14:09:07.581Z,3.33
2022-09-25T14:11:13.495Z,3.63
2022-09-25T14:13:17.504Z,3.90
2022-09-25T14:15:30.444Z,3.25
2022-09-25T14:17:34.541Z,3.58
2022-09-25T14:19:42.214Z,3.53
2022-09-25T14:21:45.809Z,3.47
2022-09-25T14:24:21.389Z,3.15
2022-09-25T14:26:26.814Z,3.55
2022-09-25T14:28:31.072Z,3.60
2022-09-25T14:30:33.099Z,3.75
2022-09-25T14:32:54.476Z,3.20
2022-09-25T14:35:04.847Z,3.50
2022-09-25T14:37:19.696Z,3.58
2022-09-25T14:39:48.040Z,3.20
2022-09-25T14:44:31.441Z,3.50
2022-09-25T14:46:34.478Z,3.10
2022-09-25T14:48:56.923Z,3.40
2022-09-25T14:51:06.877Z,3.22
2022-09-25T14:53:15.659Z,3.08
2022-09-25T14:55:21.109Z,3.42
2022-09-25T14:57:33.374Z,3.70
2022-09-25T14:59:46.376Z,3.20
2022-09-25T15:01:51.440Z,3.42
2022-09-25T15:03:58.766Z,3.20
2022-09-25T15:06:02.256Z,4.00
2022-09-25T15:08:23.525Z,3.33
2022-09-25T15:10:35.873Z,3.03
2022-09-25T15:12:45.910Z,3.20
2022-09-25T15:15:01.185Z,2.88
2022-09-25T15:17:22.575Z,3.40
2022-09-25T15:19:41.734Z,3.03
2022-09-25T15:21:44.311Z,3.38
2022-09-25T15:23:46.861Z,3.20
2022-09-25T15:25:52.431Z,3.28
2022-09-25T15:27:54.485Z,3.08
2022-09-25T15:29:57.350Z,2.70
2022-09-25T15:31:59.772Z,3.13
2022-09-25T15:34:12.208Z,3.25
2022-09-25T15:36:22.470Z,3.20
2022-09-25T15:38:35.845Z,2.92
2022-09-25T15:40:37.954Z,2.78
2022-09-25T15:42:44.835Z,3.20
2022-09-25T15:44:47.857Z,3.33
2022-09-25T15:46:52.888Z,2.80
2022-09-25T15:48:59.275Z,3.25
2022-09-25T15:51:14.306Z,3.35
2022-09-25T15:53:23.858Z,3.25
2022-09-25T15:55:26.021Z,2.95
2022-09-25T15:57:31.157Z,3.40
2022-09-25T16:00:07.603Z,2.75
2022-09-25T16:02:38.627Z,3.08
2022-09-25T16:04:49.592Z,2.90
2022-09-25T16:06:51.513Z,3.30
2022-09-25T16:09:19.998Z,2.97
2022-09-25T16:11:26.602Z,3.33
2022-09-25T16:13:28.530Z,3.10
2022-09-25T16:15:31.067Z,3.20
2022-09-25T16:17:39.157Z,3.10
2022-09-25T16:19:41.320Z,3.22
2022-09-25T16:21:43.211Z,3.38
2022-09-25T16:23:58.611Z,3.20
2022-09-25T16:26:01.198Z,2.83
2022-09-25T16:28:08.885Z,3.25
2022-09-25T16:30:25.154Z,2.77
2022-09-25T16:32:27.336Z,2.75
2022-09-25T16:34:40.429Z,3.00
2022-09-25T16:36:44.756Z,3.20
2022-09-25T16:39:05.153Z,3.00
2022-09-25T16:41:10.013Z,2.90
2022-09-25T16:43:25.731Z,2.75
2022-09-25T16:45:33.224Z,3.00
2022-09-25T16:47:35.166Z,3.20
2022-09-25T16:49:37.150Z,2.92
2022-09-25T16:51:50.407Z,3.10
2022-09-25T16:53:52.671Z,3.05
2022-09-25T16:55:54.665Z,2.80
2022-09-25T16:57:57.391Z,3.20
2022-09-25T16:59:59.302Z,2.60
2022-09-25T17:02:04.990Z,3.45
2022-09-25T17:04:08.288Z,3.05
2022-09-25T17:06:10.110Z,2.80
2022-09-25T17:08:21.021Z,2.75
2022-09-25T17:10:25.949Z,2.90
2022-09-25T17:12:29.352Z,2.60
2022-09-25T17:14:31.429Z,3.22
2022-09-25T17:16:34.569Z,2.72
2022-09-25T17:18:36.762Z,2.50
2022-09-25T17:20:38.623Z,3.10
2022-09-25T17:22:42.172Z,3.17
2022-09-25T17:24:44.121Z,3.00
2022-09-25T17:26:46.793Z,2.80
2022-09-25T17:28:49.718Z,2.85
2022-09-25T17:30:51.664Z,2.85
2022-09-25T17:32:53.678Z,2.70
2022-09-25T17:34:58.231Z,2.70
2022-09-25T17:37:00.266Z,2.90
2022-09-25T17:39:02.066Z,2.92
2022-09-25T17:41:07.848Z,2.55
2022-09-25T17:43:14.653Z,2.70
2022-09-25T17:45:36.552Z,3.10
2022-09-25T17:47:38.540Z,2.65
2022-09-25T17:49:40.974Z,2.53
2022-09-25T17:51:42.848Z,2.53
2022-09-25T17:53:45.051Z,3.10
2022-09-25T17:55:52.594Z,2.65
2022-09-25T17:57:55.210Z,2.90
2022-09-25T17:59:57.091Z,2.85
2022-09-25T18:01:59.770Z,2.95
2022-09-25T18:04:07.290Z,2.85
2022-09-25T18:06:09.106Z,2.95
2022-09-25T18:08:12.309Z,2.60
2022-09-25T18:10:14.469Z,2.80
2022-09-25T18:12:16.338Z,2.72
2022-09-25T18:14:18.179Z,2.75
2022-09-25T18:16:22.622Z,2.47
2022-09-25T18:18:24.636Z,2.80
2022-09-25T18:20:45.764Z,2.70
2022-09-25T18:22:47.644Z,2.88
2022-09-25T18:24:54.290Z,2.72
2022-09-25T18:26:57.928Z,2.95
2022-09-25T18:28:59.891Z,2.90
2022-09-25T18:31:01.815Z,2.50
2022-09-25T18:33:04.029Z,2.75
2022-09-25T18:35:07.156Z,2.92
2022-09-25T18:37:09.549Z,2.85
2022-09-25T18:39:14.939Z,2.92
2022-09-25T18:41:19.414Z,2.97
2022-09-25T18:43:21.319Z,2.72
2022-09-25T18:45:23.327Z,2.72
2022-09-25T18:47:25.232Z,2.70
2022-09-25T18:49:28.464Z,2.65
2022-09-25T18:51:30.669Z,3.00
2022-09-25T18:53:33.018Z,2.60
2022-09-25T18:55:34.865Z,2.90
2022-09-25T18:57:40.453Z,2.72
2022-09-25T18:59:42.696Z,2.60
2022-09-25T19:01:44.614Z,2.53
2022-09-25T19:03:51.910Z,2.72
2022-09-25T19:05:59.053Z,3.33
2022-09-25T19:08:02.525Z,2.80
2022-09-25T19:10:09.574Z,2.70
2022-09-25T19:12:16.078Z,2.83
2022-09-25T19:14:17.880Z,2.88
2022-09-25T19:16:21.102Z,2.88
2022-09-25T19:18:23.454Z,2.42
2022-09-25T19:20:25.555Z,3.17
2022-09-25T19:22:27.504Z,3.03
2022-09-25T19:24:30.895Z,2.60
2022-09-25T19:26:32.747Z,2.90
2022-09-25T19:28:35.445Z,2.95
2022-09-25T19:30:37.353Z,2.88
2022-09-25T19:32:39.452Z,2.38
2022-09-25T19:34:41.883Z,2.95
2022-09-25T19:36:45.187Z,3.05
2022-09-25T19:38:47.582Z,2.78
2022-09-25T19:40:49.550Z,2.90
2022-09-25T19:42:51.434Z,2.83
2022-09-25T19:44:55.947Z,2.60
2022-09-25T19:46:57.740Z,2.92
2022-09-25T19:48:59.823Z,2.90
2022-09-25T19:51:06.491Z,3.10
2022-09-25T19:53:08.419Z,2.75
2022-09-25T19:55:10.855Z,2.72
2022-09-25T19:57:12.713Z,2.72
2022-09-25T19:59:16.047Z,2.88
2022-09-25T20:01:26.304Z,2.90
2022-09-25T20:03:28.951Z,2.80
2022-09-25T20:05:30.919Z,2.40
2022-09-25T20:07:33.029Z,2.72
2022-09-25T20:09:39.599Z,2.88
2022-09-25T20:11:42.131Z,2.63
2022-09-25T20:13:44.490Z,2.58
2022-09-25T20:15:48.155Z,2.88
2022-09-25T20:17:50.058Z,2.92
2022-09-25T20:19:51.880Z,2.85
2022-09-25T20:21:53.772Z,3.08
2022-09-25T20:23:58.541Z,2.83
2022-09-25T20:26:18.861Z,3.03
2022-09-25T20:28:21.059Z,2.85
2022-09-25T20:30:24.323Z,2.67
2022-09-25T20:32:26.273Z,2.65
2022-09-25T20:34:28.139Z,3.05
2022-09-25T20:36:30.037Z,2.85
2022-09-25T20:38:32.981Z,3.17
2022-09-25T20:40:34.909Z,2.78
2022-09-25T20:42:36.901Z,3.03
2022-09-25T20:44:39.898Z,3.25
2022-09-25T20:46:42.135Z,2.70
2022-09-25T20:48:45.678Z,2.90
2022-09-25T20:50:51.460Z,2.80
2022-09-25T20:52:53.306Z,3.45
2022-09-25T20:54:56.420Z,3.40
2022-09-25T20:56:58.399Z,2.50
2022-09-25T20:59:01.248Z,3.10
2022-09-25T21:01:05.919Z,2.75
2022-09-25T21:03:07.908Z,2.58
2022-09-25T21:05:10.178Z,2.72
2022-09-25T21:07:16.773Z,3.05
2022-09-25T21:09:22.295Z,2.70
2022-09-25T21:11:25.301Z,2.85
2022-09-25T21:13:31.053Z,2.72
2022-09-25T21:15:33.643Z,2.97
2022-09-25T21:17:35.484Z,3.03
2022-09-25T21:19:37.580Z,2.90
2022-09-25T21:21:40.702Z,3.13
2022-09-25T21:23:43.628Z,2.63
2022-09-25T21:25:45.436Z,3.03
2022-09-25T21:27:47.312Z,3.65
2022-09-25T21:29:49.111Z,3.08
2022-09-25T21:31:51.217Z,3.25
2022-09-25T21:33:54.681Z,2.63
2022-09-25T21:35:56.548Z,2.88
2022-09-25T21:37:58.353Z,3.17
2022-09-25T21:40:00.233Z,3.00
2022-09-25T21:42:04.821Z,3.20
2022-09-25T21:44:20.604Z,2.85
2022-09-25T21:46:23.082Z,2.83
2022-09-25T21:48:24.961Z,2.92
2022-09-25T21:50:26.794Z,2.92
2022-09-25T21:52:28.706Z,2.88
2022-09-25T21:54:31.207Z,3.15
2022-09-25T21:56:33.604Z,3.00
2022-09-25T21:58:36.999Z,3.30
2022-09-25T22:00:38.831Z,2.88
2022-09-25T22:02:40.722Z,3.10
2022-09-25T22:04:42.654Z,2.92
2022-09-25T22:06:46.990Z,2.95
2022-09-25T22:08:52.308Z,2.65
2022-09-25T22:10:59.075Z,2.83
2022-09-25T22:13:01.475Z,3.10
2022-09-25T22:15:04.209Z,2.97
2022-09-25T22:17:06.231Z,3.00
2022-09-25T22:19:16.491Z,2.90
2022-09-25T22:21:23.163Z,3.00
2022-09-25T22:23:25.243Z,2.85
2022-09-25T22:25:27.646Z,2.92
2022-09-25T22:27:29.605Z,2.45
2022-09-25T22:29:31.830Z,2.95
2022-09-25T22:31:34.972Z,3.15
2022-09-25T22:33:37.022Z,3.05
2022-09-25T22:35:39.206Z,2.92
2022-09-25T22:37:41.126Z,2.95
2022-09-25T22:39:43.402Z,3.10
2022-09-25T22:41:49.571Z,2.78
2022-09-25T22:43:53.072Z,3.45
2022-09-25T22:45:55.158Z,2.90
2022-09-25T22:47:59.242Z,3.15
2022-09-25T22:50:01.101Z,2.90
2022-09-25T22:52:02.994Z,2.80
2022-09-25T22:54:05.084Z,3.08
2022-09-25T22:56:17.232Z,2.90
2022-09-25T22:58:20.074Z,2.90
2022-09-25T23:00:22.031Z,2.90
2022-09-25T23:02:23.925Z,3.00
2022-09-25T23:04:25.844Z,2.45
2022-09-25T23:06:29.778Z,2.80
2022-09-25T23:08:31.777Z,2.88
2022-09-25T23:11:02.494Z,2.90
2022-09-25T23:12:59.613Z,3.10
2022-09-25T23:15:01.461Z,2.85
2022-09-25T23:17:03.485Z,2.83
2022-09-25T23:19:05.596Z,2.90
2022-09-25T23:21:07.639Z,3.00
2022-09-25T23:23:09.676Z,3.00
2022-09-25T23:25:11.580Z,2.75
2022-09-25T23:27:13.388Z,2.78
2022-09-25T23:29:17.537Z,2.70
2022-09-25T23:31:20.125Z,2.95
2022-09-25T23:33:22.101Z,2.70
2022-09-25T23:35:23.950Z,2.78
2022-09-25T23:37:25.769Z,2.90
2022-09-25T23:39:27.765Z,3.22
2022-09-25T23:41:31.215Z,2.70
2022-09-25T23:43:33.043Z,2.42
2022-09-25T23:45:34.908Z,2.70
2022-09-25T23:47:36.770Z,2.80
2022-09-25T23:49:38.640Z,2.58
2022-09-25T23:51:40.695Z,2.67
2022-09-25T23:53:43.912Z,2.50
2022-09-25T23:55:45.879Z,2.80
2022-09-25T23:57:47.976Z,2.40
2022-09-25T23:59:49.827Z,2.80
